createdAt,value
2022-11-19T00:00:09.372Z,2.74
2022-11-19T00:01:10.253Z,2.75
2022-11-19T00:02:11.191Z,2.72
2022-11-19T00:03:12.037Z,2.74
2022-11-19T00:04:12.912Z,2.74
2022-11-19T00:05:13.809Z,2.72
2022-11-19T00:06:14.694Z,2.71
2022-11-19T00:07:15.594Z,2.71
2022-11-19T00:08:16.448Z,2.71
2022-11-19T00:09:17.632Z,2.74
2022-11-19T00:10:18.196Z,2.69
2022-11-19T00:11:19.082Z,2.72
2022-11-19T00:12:19.988Z,2.74
2022-11-19T00:13:20.860Z,2.74
2022-11-19T00:14:21.731Z,2.77
2022-11-19T00:15:22.633Z,2.77
2022-11-19T00:16:23.512Z,2.75
2022-11-19T00:17:24.398Z,2.79
2022-11-19T00:18:25.281Z,2.78
2022-11-19T00:19:26.169Z,2.78
2022-11-19T00:20:27.058Z,2.79
2022-11-19T00:21:27.942Z,2.78
2022-11-19T00:22:28.827Z,2.79
2022-11-19T00:23:29.712Z,2.81
2022-11-19T00:24:30.597Z,2.81
2022-11-19T00:25:31.490Z,2.82
2022-11-19T00:26:32.374Z,2.81
2022-11-19T00:27:33.274Z,2.84
2022-11-19T00:28:34.152Z,2.84
2022-11-19T00:29:35.027Z,2.85
2022-11-19T00:30:51.397Z,2.87
2022-11-19T00:31:37.702Z,2.85
2022-11-19T00:32:37.588Z,2.87
2022-11-19T00:33:38.478Z,2.89
2022-11-19T00:34:39.354Z,2.90
2022-11-19T00:35:40.246Z,2.92
2022-11-19T00:36:41.157Z,2.89
2022-11-19T00:37:42.174Z,2.90
2022-11-19T00:38:42.566Z,2.92
2022-11-19T00:39:43.446Z,2.92
2022-11-19T00:40:44.341Z,2.92
2022-11-19T00:41:45.225Z,2.93
2022-11-19T00:42:46.127Z,2.92
2022-11-19T00:43:47.298Z,2.93
2022-11-19T00:44:47.775Z,2.93
2022-11-19T00:45:48.667Z,2.95
2022-11-19T00:46:49.553Z,2.95
2022-11-19T00:47:50.427Z,2.93
2022-11-19T00:48:51.313Z,2.93
2022-11-19T00:49:52.197Z,2.95
2022-11-19T00:50:53.090Z,2.92
2022-11-19T00:51:53.975Z,2.92
2022-11-19T00:52:54.857Z,2.89
2022-11-19T00:53:55.741Z,2.87
2022-11-19T00:54:56.622Z,2.85
2022-11-19T00:55:57.517Z,2.82
2022-11-19T00:56:58.401Z,2.81
2022-11-19T00:57:59.302Z,2.81
2022-11-19T00:59:00.166Z,2.82
2022-11-19T01:00:01.048Z,2.81
2022-11-19T01:01:01.965Z,2.81
2022-11-19T01:02:02.824Z,2.79
2022-11-19T01:03:03.694Z,2.82
2022-11-19T01:04:04.578Z,2.82
2022-11-19T01:05:05.451Z,2.82
2022-11-19T01:06:06.347Z,2.84
2022-11-19T01:07:07.286Z,2.85
2022-11-19T01:08:08.129Z,2.87
2022-11-19T01:09:09.011Z,2.89
2022-11-19T01:10:09.892Z,2.89
2022-11-19T01:11:10.772Z,2.90
2022-11-19T01:12:11.662Z,2.89
2022-11-19T01:13:12.568Z,2.89
2022-11-19T01:14:13.419Z,2.89
2022-11-19T01:15:14.304Z,2.90
2022-11-19T01:16:15.194Z,2.92
2022-11-19T01:17:16.081Z,2.92
2022-11-19T01:18:16.961Z,2.92
2022-11-19T01:19:18.255Z,2.90
2022-11-19T01:20:18.797Z,2.90
2022-11-19T01:21:19.639Z,2.92
2022-11-19T01:22:20.523Z,2.92
2022-11-19T01:23:21.394Z,2.89
2022-11-19T01:24:22.278Z,2.89
2022-11-19T01:25:23.159Z,2.90
2022-11-19T01:26:24.056Z,2.90
2022-11-19T01:27:24.925Z,2.89
2022-11-19T01:28:25.825Z,2.90
2022-11-19T01:29:26.678Z,2.89
2022-11-19T01:30:27.560Z,2.89
2022-11-19T01:31:28.447Z,2.90
2022-11-19T01:32:29.330Z,2.89
2022-11-19T01:33:30.201Z,2.89
2022-11-19T01:34:31.086Z,2.89
2022-11-19T01:35:31.956Z,2.87
2022-11-19T01:36:32.847Z,2.87
2022-11-19T01:37:33.725Z,2.85
2022-11-19T01:38:34.604Z,2.85
2022-11-19T01:39:35.476Z,2.87
2022-11-19T01:40:36.359Z,2.85
2022-11-19T01:41:37.246Z,2.84
2022-11-19T01:42:38.135Z,2.82
2022-11-19T01:43:39.024Z,2.82
2022-11-19T01:44:39.888Z,2.81
2022-11-19T01:45:40.765Z,2.78
2022-11-19T01:46:41.662Z,2.77
2022-11-19T01:47:42.539Z,2.75
2022-11-19T01:48:43.420Z,2.74
2022-11-19T01:49:44.296Z,2.72
2022-11-19T01:50:45.177Z,2.67
2022-11-19T01:51:46.067Z,2.69
2022-11-19T01:52:46.949Z,2.66
2022-11-19T01:53:47.824Z,2.64
2022-11-19T01:54:48.706Z,2.61
2022-11-19T01:55:49.590Z,2.59
2022-11-19T01:56:50.480Z,2.57
2022-11-19T01:57:51.353Z,2.56
2022-11-19T01:58:52.256Z,2.52
2022-11-19T01:59:53.107Z,2.49
2022-11-19T02:00:54.021Z,2.48
2022-11-19T02:01:54.881Z,2.45
2022-11-19T02:02:55.763Z,2.41
2022-11-19T02:03:56.638Z,2.39
2022-11-19T02:04:57.518Z,2.39
2022-11-19T02:05:58.404Z,2.36
2022-11-19T02:06:59.356Z,2.31
2022-11-19T02:08:00.200Z,2.27
2022-11-19T02:09:01.076Z,2.27
2022-11-19T02:10:01.955Z,2.25
2022-11-19T02:11:02.831Z,2.21
2022-11-19T02:12:03.713Z,2.20
2022-11-19T02:13:04.594Z,2.16
2022-11-19T02:14:05.490Z,2.14
2022-11-19T02:15:06.351Z,2.10
2022-11-19T02:16:07.234Z,2.07
2022-11-19T02:17:08.126Z,2.03
2022-11-19T02:18:08.996Z,2.00
2022-11-19T02:19:09.879Z,1.99
2022-11-19T02:20:10.792Z,1.91
2022-11-19T02:21:11.674Z,1.86
2022-11-19T02:22:12.569Z,1.88
2022-11-19T02:23:13.450Z,1.86
2022-11-19T02:24:14.336Z,1.83
2022-11-19T02:25:15.214Z,1.83
2022-11-19T02:26:16.088Z,1.81
2022-11-19T02:27:16.981Z,1.80
2022-11-19T02:28:17.856Z,1.80
2022-11-19T02:29:19.048Z,1.79
2022-11-19T02:30:19.458Z,1.79
2022-11-19T02:31:20.330Z,1.79
2022-11-19T02:32:21.224Z,1.79
2022-11-19T02:33:22.103Z,1.79
2022-11-19T02:34:22.986Z,1.80
2022-11-19T02:35:23.868Z,1.79
2022-11-19T02:36:24.750Z,1.80
2022-11-19T02:37:25.641Z,1.80
2022-11-19T02:38:26.514Z,1.77
2022-11-19T02:39:27.395Z,1.77
2022-11-19T02:40:28.267Z,1.79
2022-11-19T02:41:29.152Z,1.79
2022-11-19T02:42:30.054Z,1.79
2022-11-19T02:43:30.924Z,1.79
2022-11-19T02:44:31.825Z,1.80
2022-11-19T02:45:32.691Z,1.80
2022-11-19T02:46:33.564Z,1.79
2022-11-19T02:47:34.453Z,1.76
2022-11-19T02:48:35.326Z,1.70
2022-11-19T02:49:36.209Z,1.72
2022-11-19T02:50:37.080Z,1.70
2022-11-19T02:51:37.961Z,1.70
2022-11-19T02:52:38.846Z,1.68
2022-11-19T02:53:39.729Z,1.65
2022-11-19T02:54:40.599Z,1.65
2022-11-19T02:55:41.482Z,1.62
2022-11-19T02:56:42.356Z,1.60
2022-11-19T02:57:43.243Z,1.58
2022-11-19T02:58:44.126Z,1.55
2022-11-19T02:59:45.086Z,1.54
2022-11-19T03:00:45.892Z,1.54
2022-11-19T03:01:46.823Z,1.50
2022-11-19T03:02:47.655Z,1.51
2022-11-19T03:03:48.536Z,1.50
2022-11-19T03:04:49.421Z,1.48
2022-11-19T03:05:50.303Z,1.50
2022-11-19T03:06:51.178Z,1.50
2022-11-19T03:07:52.069Z,1.51
2022-11-19T03:08:52.942Z,1.51
2022-11-19T03:09:53.826Z,1.52
2022-11-19T03:10:54.701Z,1.54
2022-11-19T03:11:55.576Z,1.55
2022-11-19T03:12:56.470Z,1.58
2022-11-19T03:13:57.350Z,1.58
2022-11-19T03:14:58.248Z,1.55
2022-11-19T03:15:59.111Z,1.59
2022-11-19T03:16:59.990Z,1.60
2022-11-19T03:18:00.882Z,1.63
2022-11-19T03:19:01.755Z,1.63
2022-11-19T03:20:02.643Z,1.65
2022-11-19T03:21:03.521Z,1.68
2022-11-19T03:22:04.404Z,1.68
2022-11-19T03:23:05.283Z,1.70
2022-11-19T03:24:06.163Z,1.69
2022-11-19T03:25:07.046Z,1.72
2022-11-19T03:26:07.927Z,1.70
2022-11-19T03:27:08.805Z,1.70
2022-11-19T03:28:09.692Z,1.69
2022-11-19T03:29:10.566Z,1.72
2022-11-19T03:30:11.467Z,1.69
2022-11-19T03:31:12.321Z,1.68
2022-11-19T03:32:13.202Z,1.66
2022-11-19T03:33:14.085Z,1.66
2022-11-19T03:34:14.970Z,1.62
2022-11-19T03:35:15.856Z,1.63
2022-11-19T03:36:16.739Z,1.62
2022-11-19T03:37:17.621Z,1.62
2022-11-19T03:38:18.514Z,1.63
2022-11-19T03:39:19.754Z,1.62
2022-11-19T03:40:20.277Z,1.65
2022-11-19T03:41:21.160Z,1.66
2022-11-19T03:42:22.044Z,1.63
2022-11-19T03:43:22.935Z,1.65
2022-11-19T03:44:23.817Z,1.65
2022-11-19T03:45:24.734Z,1.63
2022-11-19T03:46:25.586Z,1.63
2022-11-19T03:47:26.461Z,1.65
2022-11-19T03:48:27.352Z,1.63
2022-11-19T03:49:28.239Z,1.63
2022-11-19T03:50:29.120Z,1.62
2022-11-19T03:51:30.001Z,1.63
2022-11-19T03:52:30.881Z,1.63
2022-11-19T03:53:31.765Z,1.63
2022-11-19T03:54:32.652Z,1.66
2022-11-19T03:55:33.520Z,1.66
2022-11-19T03:56:34.402Z,1.65
2022-11-19T03:57:35.287Z,1.65
2022-11-19T03:58:36.178Z,1.66
2022-11-19T03:59:37.063Z,1.65
2022-11-19T04:00:37.964Z,1.62
2022-11-19T04:01:38.932Z,1.59
2022-11-19T04:02:39.761Z,1.55
2022-11-19T04:03:40.652Z,1.55
2022-11-19T04:04:41.534Z,1.55
2022-11-19T04:05:42.409Z,1.54
2022-11-19T04:06:43.292Z,1.51
2022-11-19T04:07:44.165Z,1.50
2022-11-19T04:08:45.056Z,1.50
2022-11-19T04:09:45.930Z,1.48
2022-11-19T04:10:46.813Z,1.48
2022-11-19T04:12:56.621Z,1.50
2022-11-19T04:13:57.512Z,1.50
2022-11-19T04:14:58.385Z,1.51
2022-11-19T04:15:59.289Z,1.51
2022-11-19T04:17:00.139Z,1.54
2022-11-19T04:18:01.024Z,1.55
2022-11-19T04:19:01.905Z,1.58
2022-11-19T04:20:02.793Z,1.59
2022-11-19T04:21:03.661Z,1.59
2022-11-19T04:22:04.548Z,1.62
2022-11-19T04:23:05.429Z,1.62
2022-11-19T04:24:06.318Z,1.60
2022-11-19T04:25:07.192Z,1.62
2022-11-19T04:26:08.071Z,1.65
2022-11-19T04:27:08.955Z,1.63
2022-11-19T04:28:09.835Z,1.65
2022-11-19T04:29:10.718Z,1.63
2022-11-19T04:30:11.600Z,1.65
2022-11-19T04:31:17.627Z,1.66
2022-11-19T04:32:14.242Z,1.68
2022-11-19T04:33:14.117Z,1.68
2022-11-19T04:34:15.006Z,1.70
2022-11-19T04:35:15.879Z,1.70
2022-11-19T04:36:16.761Z,1.72
2022-11-19T04:37:17.637Z,1.73
2022-11-19T04:38:18.516Z,1.77
2022-11-19T04:39:19.618Z,1.79
2022-11-19T04:40:20.131Z,1.77
2022-11-19T04:41:21.004Z,1.77
2022-11-19T04:42:21.887Z,1.79
2022-11-19T04:43:22.762Z,1.77
2022-11-19T04:44:23.667Z,1.80
2022-11-19T04:45:24.541Z,1.80
2022-11-19T04:46:25.442Z,1.81
2022-11-19T04:47:26.297Z,1.80
2022-11-19T04:48:27.183Z,1.80
2022-11-19T04:49:28.063Z,1.81
2022-11-19T04:50:28.944Z,1.80
2022-11-19T04:51:29.817Z,1.80
2022-11-19T04:52:30.700Z,1.83
2022-11-19T04:53:31.584Z,1.80
2022-11-19T04:54:32.478Z,1.80
2022-11-19T04:55:33.349Z,1.81
2022-11-19T04:56:34.235Z,1.83
2022-11-19T04:57:35.107Z,1.80
2022-11-19T04:58:35.987Z,1.80
2022-11-19T04:59:36.872Z,1.80
2022-11-19T05:00:37.754Z,1.79
2022-11-19T05:01:38.731Z,1.80
2022-11-19T05:02:39.589Z,1.79
2022-11-19T05:03:40.461Z,1.76
2022-11-19T05:04:41.352Z,1.76
2022-11-19T05:05:42.225Z,1.77
2022-11-19T05:06:43.109Z,1.77
2022-11-19T05:07:43.992Z,1.76
2022-11-19T05:08:44.877Z,1.76
2022-11-19T05:09:45.771Z,1.73
2022-11-19T05:10:46.654Z,1.73
2022-11-19T05:11:47.528Z,1.76
2022-11-19T05:12:48.410Z,1.77
2022-11-19T05:13:49.296Z,1.76
2022-11-19T05:14:50.186Z,1.76
2022-11-19T05:15:51.059Z,1.72
2022-11-19T05:16:51.958Z,1.76
2022-11-19T05:17:52.814Z,1.73
2022-11-19T05:18:53.699Z,1.76
2022-11-19T05:19:54.581Z,1.76
2022-11-19T05:20:55.462Z,1.77
2022-11-19T05:21:56.336Z,1.77
2022-11-19T05:22:57.218Z,1.77
2022-11-19T05:23:58.094Z,1.80
2022-11-19T05:24:58.981Z,1.81
2022-11-19T05:25:59.866Z,1.81
2022-11-19T05:27:00.748Z,1.81
2022-11-19T05:28:01.621Z,1.83
2022-11-19T05:29:02.504Z,1.83
2022-11-19T05:30:03.389Z,1.84
2022-11-19T05:31:04.267Z,1.83
2022-11-19T05:32:05.161Z,1.86
2022-11-19T05:33:06.023Z,1.84
2022-11-19T05:34:06.899Z,1.86
2022-11-19T05:35:07.823Z,1.86
2022-11-19T05:36:08.716Z,1.87
2022-11-19T05:37:09.598Z,1.84
2022-11-19T05:38:10.472Z,1.86
2022-11-19T05:39:11.354Z,1.81
2022-11-19T05:40:12.237Z,1.83
2022-11-19T05:41:13.119Z,1.83
2022-11-19T05:42:13.992Z,1.83
2022-11-19T05:43:14.873Z,1.83
2022-11-19T05:44:15.750Z,1.81
2022-11-19T05:45:16.649Z,1.83
2022-11-19T05:46:17.524Z,1.81
2022-11-19T05:47:18.430Z,1.81
2022-11-19T05:48:19.293Z,1.83
2022-11-19T05:49:20.613Z,1.83
2022-11-19T05:50:21.146Z,1.86
2022-11-19T05:51:22.029Z,1.87
2022-11-19T05:52:22.911Z,1.86
2022-11-19T05:53:23.785Z,1.87
2022-11-19T05:54:24.708Z,1.88
2022-11-19T05:55:25.597Z,1.87
2022-11-19T05:56:26.478Z,1.87
2022-11-19T05:57:27.352Z,1.88
2022-11-19T05:58:28.255Z,1.88
2022-11-19T05:59:29.128Z,1.88
2022-11-19T06:00:30.020Z,1.87
2022-11-19T06:01:30.913Z,1.88
2022-11-19T06:02:31.896Z,1.87
2022-11-19T06:03:32.748Z,1.87
2022-11-19T06:04:33.631Z,1.88
2022-11-19T06:05:39.876Z,1.88
2022-11-19T06:06:36.238Z,1.87
2022-11-19T06:07:36.210Z,1.87
2022-11-19T06:08:37.068Z,1.87
2022-11-19T06:09:37.941Z,1.86
2022-11-19T06:10:38.788Z,1.84
2022-11-19T06:11:39.607Z,1.83
2022-11-19T06:12:45.321Z,1.83
2022-11-19T06:13:42.260Z,1.83
2022-11-19T06:14:42.133Z,1.81
2022-11-19T06:15:42.978Z,1.83
2022-11-19T06:16:43.811Z,1.81
2022-11-19T06:17:44.713Z,1.83
2022-11-19T06:18:45.470Z,1.83
2022-11-19T06:19:46.289Z,1.86
2022-11-19T06:20:47.126Z,1.87
2022-11-19T06:21:47.957Z,1.84
2022-11-19T06:22:48.785Z,1.87
2022-11-19T06:23:49.606Z,1.84
2022-11-19T06:24:50.433Z,1.86
2022-11-19T06:25:51.262Z,1.83
2022-11-19T06:26:52.091Z,1.84
2022-11-19T06:27:52.910Z,1.84
2022-11-19T06:28:53.740Z,1.84
2022-11-19T06:29:56.345Z,1.81
2022-11-19T06:30:55.295Z,1.80
2022-11-19T06:31:56.114Z,1.81
2022-11-19T06:32:56.964Z,1.81
2022-11-19T06:33:57.761Z,1.80
2022-11-19T06:34:58.596Z,1.81
2022-11-19T06:35:59.419Z,1.81
2022-11-19T06:37:00.248Z,1.79
2022-11-19T06:38:01.065Z,1.80
2022-11-19T06:39:01.897Z,1.83
2022-11-19T06:40:02.715Z,1.80
2022-11-19T06:41:03.547Z,1.79
2022-11-19T06:42:04.363Z,1.81
2022-11-19T06:43:05.193Z,1.79
2022-11-19T06:44:06.014Z,1.79
2022-11-19T06:45:06.839Z,1.77
2022-11-19T06:46:07.671Z,1.80
2022-11-19T06:47:08.500Z,1.79
2022-11-19T06:48:09.339Z,1.80
2022-11-19T06:49:12.333Z,1.80
2022-11-19T06:50:11.864Z,1.81
2022-11-19T06:51:11.700Z,1.81
2022-11-19T06:52:12.515Z,1.83
2022-11-19T06:53:13.344Z,1.83
2022-11-19T06:54:14.165Z,1.84
2022-11-19T06:55:14.994Z,1.87
2022-11-19T06:56:15.825Z,1.87
2022-11-19T06:57:16.650Z,1.87
2022-11-19T06:58:17.473Z,1.87
2022-11-19T06:59:18.662Z,1.88
2022-11-19T07:00:19.166Z,1.88
2022-11-19T07:01:20.090Z,1.90
2022-11-19T07:02:21.766Z,1.91
2022-11-19T07:03:21.689Z,1.93
2022-11-19T07:04:22.490Z,1.93
2022-11-19T07:05:23.318Z,1.99
2022-11-19T07:06:24.163Z,1.95
2022-11-19T07:07:25.100Z,1.98
2022-11-19T07:08:25.930Z,1.99
2022-11-19T07:09:26.764Z,1.99
2022-11-19T07:10:27.578Z,2.02
2022-11-19T07:11:28.414Z,1.99
2022-11-19T07:12:29.234Z,2.00
2022-11-19T07:13:30.063Z,2.02
2022-11-19T07:14:30.882Z,1.99
2022-11-19T07:15:31.858Z,2.02
2022-11-19T07:16:32.645Z,2.00
2022-11-19T07:17:33.474Z,2.03
2022-11-19T07:18:34.315Z,2.03
2022-11-19T07:19:35.128Z,2.03
2022-11-19T07:20:35.952Z,2.03
2022-11-19T07:21:36.791Z,2.06
2022-11-19T07:22:37.619Z,2.07
2022-11-19T07:23:38.454Z,2.05
2022-11-19T07:24:39.278Z,2.05
2022-11-19T07:25:40.216Z,2.06
2022-11-19T07:26:41.032Z,2.06
2022-11-19T07:27:41.839Z,2.09
2022-11-19T07:28:42.650Z,2.06
2022-11-19T07:29:43.480Z,2.09
2022-11-19T07:30:44.300Z,2.10
2022-11-19T07:31:45.136Z,2.10
2022-11-19T07:32:45.955Z,2.10
2022-11-19T07:33:46.874Z,2.12
2022-11-19T07:34:47.624Z,2.12
2022-11-19T07:35:48.453Z,2.14
2022-11-19T07:36:49.280Z,2.14
2022-11-19T07:37:50.112Z,2.14
2022-11-19T07:38:50.932Z,2.16
2022-11-19T07:39:51.758Z,2.16
2022-11-19T07:40:52.576Z,2.17
2022-11-19T07:41:53.413Z,2.17
2022-11-19T07:42:54.233Z,2.18
2022-11-19T07:43:55.060Z,2.18
2022-11-19T07:44:55.885Z,2.20
2022-11-19T07:45:56.709Z,2.18
2022-11-19T07:46:57.561Z,2.20
2022-11-19T07:47:58.377Z,2.21
2022-11-19T07:48:59.218Z,2.24
2022-11-19T07:50:00.014Z,2.23
2022-11-19T07:51:00.838Z,2.24
2022-11-19T07:52:01.671Z,2.23
2022-11-19T07:53:02.490Z,2.25
2022-11-19T07:54:03.308Z,2.28
2022-11-19T07:55:04.128Z,2.28
2022-11-19T07:56:04.958Z,2.30
2022-11-19T07:57:05.786Z,2.28
2022-11-19T07:58:06.615Z,2.34
2022-11-19T07:59:07.435Z,2.35
2022-11-19T08:00:08.263Z,2.35
2022-11-19T08:01:09.082Z,2.35
2022-11-19T08:02:09.967Z,2.36
2022-11-19T08:03:10.753Z,2.39
2022-11-19T08:04:11.602Z,2.39
2022-11-19T08:05:12.399Z,2.38
2022-11-19T08:06:13.228Z,2.36
2022-11-19T08:07:14.122Z,2.38
2022-11-19T08:08:14.924Z,2.35
2022-11-19T08:09:15.744Z,2.35
2022-11-19T08:10:16.573Z,2.34
2022-11-19T08:11:17.391Z,2.34
2022-11-19T08:12:18.234Z,2.31
2022-11-19T08:13:19.056Z,2.30
2022-11-19T08:14:19.884Z,2.28
2022-11-19T08:15:20.703Z,2.27
2022-11-19T08:16:21.533Z,2.28
2022-11-19T08:17:22.372Z,2.30
2022-11-19T08:18:27.181Z,2.27
2022-11-19T08:19:24.936Z,2.28
2022-11-19T08:20:24.820Z,2.25
2022-11-19T08:21:25.631Z,2.25
2022-11-19T08:22:26.468Z,2.24
2022-11-19T08:23:27.289Z,2.21
2022-11-19T08:24:28.116Z,2.20
2022-11-19T08:25:28.936Z,2.17
2022-11-19T08:26:29.768Z,2.17
2022-11-19T08:27:30.616Z,2.14
2022-11-19T08:28:31.443Z,2.12
2022-11-19T08:29:32.272Z,2.14
2022-11-19T08:30:33.095Z,2.17
2022-11-19T08:31:34.083Z,2.18
2022-11-19T08:32:34.858Z,2.20
2022-11-19T08:33:35.683Z,2.20
2022-11-19T08:34:36.516Z,2.23
2022-11-19T08:35:37.328Z,2.25
2022-11-19T08:36:38.160Z,2.28
2022-11-19T08:37:38.987Z,2.31
2022-11-19T08:38:39.814Z,2.34
2022-11-19T08:39:40.632Z,2.35
2022-11-19T08:40:41.463Z,2.38
2022-11-19T08:41:42.294Z,2.41
2022-11-19T08:42:43.129Z,2.45
2022-11-19T08:43:43.948Z,2.46
2022-11-19T08:44:45.786Z,2.49
2022-11-19T08:45:45.537Z,2.52
2022-11-19T08:46:46.376Z,2.53
2022-11-19T08:47:47.195Z,2.57
2022-11-19T08:48:47.754Z,2.59
2022-11-19T08:49:48.602Z,2.60
2022-11-19T08:50:49.410Z,2.63
2022-11-19T08:51:50.232Z,2.63
2022-11-19T08:52:51.070Z,2.64
2022-11-19T08:53:51.902Z,2.66
2022-11-19T08:54:52.731Z,2.66
2022-11-19T08:55:53.552Z,2.66
2022-11-19T08:56:54.379Z,2.64
2022-11-19T08:57:55.211Z,2.64
2022-11-19T08:59:01.322Z,2.66
2022-11-19T09:00:02.872Z,2.64
2022-11-19T09:00:58.574Z,2.66
2022-11-19T09:01:58.344Z,2.67
2022-11-19T09:02:59.183Z,2.66
2022-11-19T09:04:00.001Z,2.67
2022-11-19T09:05:00.849Z,2.67
2022-11-19T09:06:01.653Z,2.64
2022-11-19T09:07:02.555Z,2.63
2022-11-19T09:08:03.431Z,2.63
2022-11-19T09:09:04.259Z,2.60
2022-11-19T09:10:05.089Z,2.60
2022-11-19T09:11:05.954Z,2.59
2022-11-19T09:12:06.773Z,2.57
2022-11-19T09:13:07.616Z,2.59
2022-11-19T09:14:08.430Z,2.60
2022-11-19T09:15:09.249Z,2.59
2022-11-19T09:16:10.067Z,2.61
2022-11-19T09:17:10.895Z,2.63
2022-11-19T09:18:11.724Z,2.64
2022-11-19T09:19:12.548Z,2.66
2022-11-19T09:20:13.397Z,2.69
2022-11-19T09:21:14.207Z,2.72
2022-11-19T09:22:15.036Z,2.72
2022-11-19T09:23:15.876Z,2.75
2022-11-19T09:24:16.735Z,2.77
2022-11-19T09:25:17.532Z,2.79
2022-11-19T09:26:18.359Z,2.81
2022-11-19T09:27:19.178Z,2.84
2022-11-19T09:28:20.008Z,2.87
2022-11-19T09:29:20.837Z,2.89
2022-11-19T09:30:21.837Z,2.95
2022-11-19T09:31:22.638Z,2.97
2022-11-19T09:32:25.549Z,3.00
2022-11-19T09:33:24.027Z,3.05
2022-11-19T09:34:24.858Z,3.08
2022-11-19T09:35:25.694Z,3.14
2022-11-19T09:36:26.494Z,3.18
2022-11-19T09:37:27.325Z,3.23
2022-11-19T09:38:28.169Z,3.26
2022-11-19T09:39:29.003Z,3.31
2022-11-19T09:40:29.832Z,3.35
2022-11-19T09:41:30.658Z,3.40
2022-11-19T09:42:31.478Z,3.45
2022-11-19T09:43:32.315Z,3.47
2022-11-19T09:44:33.135Z,3.51
2022-11-19T09:45:33.969Z,3.54
2022-11-19T09:46:34.803Z,3.58
2022-11-19T09:47:35.623Z,3.62
2022-11-19T09:48:36.452Z,3.65
2022-11-19T09:49:37.280Z,3.68
2022-11-19T09:50:38.122Z,3.70
2022-11-19T09:51:38.927Z,3.73
2022-11-19T09:52:39.746Z,3.75
2022-11-19T09:53:40.585Z,3.78
2022-11-19T09:54:41.416Z,3.79
2022-11-19T09:55:42.245Z,3.79
2022-11-19T09:56:43.088Z,3.80
2022-11-19T09:57:43.904Z,3.83
2022-11-19T09:58:44.753Z,3.84
2022-11-19T09:59:45.573Z,3.86
2022-11-19T10:00:46.394Z,3.87
2022-11-19T10:01:47.219Z,3.88
2022-11-19T10:02:48.081Z,3.90
2022-11-19T10:03:48.885Z,3.90
2022-11-19T10:04:49.705Z,3.91
2022-11-19T10:05:50.557Z,3.91
2022-11-19T10:06:51.366Z,3.93
2022-11-19T10:07:52.194Z,3.94
2022-11-19T10:08:53.031Z,3.94
2022-11-19T10:09:53.857Z,3.94
2022-11-19T10:10:54.677Z,3.97
2022-11-19T10:11:55.510Z,3.98
2022-11-19T10:12:56.341Z,3.98
2022-11-19T10:13:57.165Z,4.02
2022-11-19T10:14:57.994Z,4.05
2022-11-19T10:15:58.827Z,4.05
2022-11-19T10:16:59.658Z,4.09
2022-11-19T10:18:00.497Z,4.09
2022-11-19T10:19:01.378Z,4.12
2022-11-19T10:20:02.154Z,4.12
2022-11-19T10:21:03.000Z,4.15
2022-11-19T10:22:03.804Z,4.18
2022-11-19T10:23:04.635Z,4.18
2022-11-19T10:24:05.467Z,4.22
2022-11-19T10:25:06.292Z,4.23
2022-11-19T10:26:07.126Z,4.26
2022-11-19T10:27:08.859Z,4.24
2022-11-19T10:28:08.677Z,4.27
2022-11-19T10:29:09.511Z,4.30
2022-11-19T10:30:10.331Z,4.32
2022-11-19T10:31:11.158Z,4.32
2022-11-19T10:32:11.982Z,4.34
2022-11-19T10:33:12.813Z,4.36
2022-11-19T10:34:13.646Z,4.36
2022-11-19T10:35:14.476Z,4.40
2022-11-19T10:36:15.327Z,4.42
2022-11-19T10:37:16.136Z,4.42
2022-11-19T10:38:16.955Z,4.45
2022-11-19T10:39:18.353Z,4.48
2022-11-19T10:40:18.358Z,4.51
2022-11-19T10:41:19.165Z,4.54
2022-11-19T10:42:19.984Z,4.55
2022-11-19T10:43:23.344Z,4.58
2022-11-19T10:44:21.765Z,4.60
2022-11-19T10:45:22.145Z,4.60
2022-11-19T10:46:22.959Z,4.63
2022-11-19T10:47:23.789Z,4.63
2022-11-19T10:48:24.610Z,4.66
2022-11-19T10:49:25.447Z,4.66
2022-11-19T10:50:26.277Z,4.69
2022-11-19T10:51:27.154Z,4.69
2022-11-19T10:52:27.924Z,4.73
2022-11-19T10:53:28.753Z,4.75
2022-11-19T10:54:29.603Z,4.75
2022-11-19T10:55:30.431Z,4.80
2022-11-19T10:56:31.261Z,4.82
2022-11-19T10:57:32.096Z,4.88
2022-11-19T10:58:32.912Z,4.88
2022-11-19T10:59:33.752Z,4.92
2022-11-19T11:00:34.618Z,4.92
2022-11-19T11:01:35.411Z,4.94
2022-11-19T11:02:36.230Z,4.96
2022-11-19T11:03:37.066Z,4.96
2022-11-19T11:04:37.890Z,4.96
2022-11-19T11:05:38.721Z,5.00
2022-11-19T11:06:39.573Z,5.02
2022-11-19T11:07:41.811Z,5.04
2022-11-19T11:08:41.130Z,5.07
2022-11-19T11:09:41.966Z,5.10
2022-11-19T11:10:42.787Z,5.12
2022-11-19T11:11:43.616Z,5.18
2022-11-19T11:12:44.439Z,5.21
2022-11-19T11:13:45.267Z,5.24
2022-11-19T11:14:46.118Z,5.28
2022-11-19T11:15:46.945Z,5.30
2022-11-19T11:16:47.777Z,5.35
2022-11-19T11:17:48.595Z,5.36
2022-11-19T11:18:49.411Z,5.40
2022-11-19T11:19:50.265Z,5.43
2022-11-19T11:20:51.087Z,5.45
2022-11-19T11:21:51.971Z,5.46
2022-11-19T11:22:52.772Z,5.49
2022-11-19T11:23:53.600Z,5.51
2022-11-19T11:24:54.455Z,5.51
2022-11-19T11:25:55.270Z,5.53
2022-11-19T11:26:56.080Z,5.54
2022-11-19T11:27:56.909Z,5.58
2022-11-19T11:28:57.755Z,5.58
2022-11-19T11:29:58.577Z,5.58
2022-11-19T11:30:59.396Z,5.58
2022-11-19T11:32:00.502Z,5.61
2022-11-19T11:33:00.824Z,5.64
2022-11-19T11:34:01.645Z,5.67
2022-11-19T11:35:07.497Z,5.68
2022-11-19T11:36:04.187Z,5.68
2022-11-19T11:37:04.035Z,5.71
2022-11-19T11:38:04.829Z,5.74
2022-11-19T11:39:05.650Z,5.75
2022-11-19T11:40:06.487Z,5.78
2022-11-19T11:42:11.780Z,5.83
2022-11-19T11:43:09.735Z,5.85
2022-11-19T11:44:09.561Z,5.86
2022-11-19T11:45:10.392Z,5.89
2022-11-19T11:46:11.221Z,5.91
2022-11-19T11:47:12.040Z,5.90
2022-11-19T11:48:12.863Z,5.91
2022-11-19T11:49:13.679Z,5.93
2022-11-19T11:50:14.633Z,5.94
2022-11-19T11:51:15.430Z,5.97
2022-11-19T11:52:16.269Z,5.96
2022-11-19T11:53:17.080Z,5.99
2022-11-19T11:54:18.572Z,6.01
2022-11-19T11:55:18.536Z,6.01
2022-11-19T11:56:19.351Z,6.03
2022-11-19T11:57:20.172Z,6.06
2022-11-19T11:58:21.000Z,6.09
2022-11-19T11:59:22.172Z,6.09
2022-11-19T12:00:22.694Z,6.12
2022-11-19T12:01:23.522Z,6.12
2022-11-19T12:02:24.379Z,6.12
2022-11-19T12:03:25.163Z,6.17
2022-11-19T12:04:25.990Z,6.19
2022-11-19T12:05:26.821Z,6.21
2022-11-19T12:06:27.640Z,6.22
2022-11-19T12:07:28.593Z,6.22
2022-11-19T12:08:29.357Z,6.25
2022-11-19T12:09:30.177Z,6.28
2022-11-19T12:10:31.033Z,6.28
2022-11-19T12:11:31.852Z,6.33
2022-11-19T12:12:32.692Z,6.37
2022-11-19T12:13:33.509Z,6.41
2022-11-19T12:14:34.337Z,6.46
2022-11-19T12:15:35.165Z,6.51
2022-11-19T12:16:35.992Z,6.56
2022-11-19T12:17:36.813Z,6.59
2022-11-19T12:18:37.640Z,6.62
2022-11-19T12:19:38.459Z,6.66
2022-11-19T12:20:39.300Z,6.67
2022-11-19T12:21:40.126Z,6.70
2022-11-19T12:22:40.975Z,6.70
2022-11-19T12:23:41.773Z,6.71
2022-11-19T12:24:42.601Z,6.71
2022-11-19T12:25:43.429Z,6.71
2022-11-19T12:26:44.259Z,6.70
2022-11-19T12:27:45.078Z,6.73
2022-11-19T12:28:45.908Z,6.74
2022-11-19T12:29:46.739Z,6.74
2022-11-19T12:30:47.585Z,6.74
2022-11-19T12:31:48.404Z,6.76
2022-11-19T12:32:49.228Z,6.76
2022-11-19T12:33:50.050Z,6.76
2022-11-19T12:34:50.877Z,6.74
2022-11-19T12:35:51.731Z,6.76
2022-11-19T12:36:52.550Z,6.77
2022-11-19T12:37:53.392Z,6.80
2022-11-19T12:38:54.198Z,6.80
2022-11-19T12:39:55.028Z,6.84
2022-11-19T12:40:55.864Z,6.85
2022-11-19T12:41:56.685Z,6.88
2022-11-19T12:42:57.514Z,6.91
2022-11-19T12:43:58.334Z,6.88
2022-11-19T12:44:59.162Z,6.92
2022-11-19T12:45:59.991Z,6.92
2022-11-19T12:47:00.812Z,6.92
2022-11-19T12:48:01.628Z,6.94
2022-11-19T12:49:02.458Z,6.94
2022-11-19T12:50:03.287Z,6.92
2022-11-19T12:51:04.126Z,6.92
2022-11-19T12:52:04.946Z,6.92
2022-11-19T12:53:05.800Z,6.92
2022-11-19T12:54:06.596Z,6.94
2022-11-19T12:55:07.423Z,6.95
2022-11-19T12:56:08.252Z,6.97
2022-11-19T12:57:09.082Z,6.97
2022-11-19T12:58:09.912Z,6.99
2022-11-19T12:59:10.738Z,7.02
2022-11-19T13:00:11.557Z,6.99
2022-11-19T13:01:12.436Z,6.99
2022-11-19T13:02:13.237Z,6.98
2022-11-19T13:03:14.064Z,6.98
2022-11-19T13:04:14.882Z,6.98
2022-11-19T13:05:15.764Z,6.97
2022-11-19T13:06:18.032Z,6.97
2022-11-19T13:07:17.531Z,6.94
2022-11-19T13:08:18.365Z,6.92
2022-11-19T13:09:19.374Z,6.85
2022-11-19T13:10:19.756Z,6.88
2022-11-19T13:11:20.592Z,6.87
2022-11-19T13:12:21.413Z,6.87
2022-11-19T13:13:22.240Z,6.85
2022-11-19T13:14:23.061Z,6.85
2022-11-19T13:15:23.892Z,6.81
2022-11-19T13:16:24.717Z,6.77
2022-11-19T13:17:25.545Z,6.73
2022-11-19T13:18:26.365Z,6.69
2022-11-19T13:19:27.193Z,6.67
2022-11-19T13:20:28.014Z,6.64
2022-11-19T13:21:28.877Z,6.62
2022-11-19T13:22:29.697Z,6.64
2022-11-19T13:23:30.541Z,6.59
2022-11-19T13:24:31.344Z,6.58
2022-11-19T13:25:32.185Z,6.54
2022-11-19T13:26:33.018Z,6.51
2022-11-19T13:27:33.842Z,6.44
2022-11-19T13:28:34.671Z,6.43
2022-11-19T13:29:35.499Z,6.37
2022-11-19T13:30:36.318Z,6.36
2022-11-19T13:31:37.155Z,6.30